<?xml version="1.0" encoding="UTF-8" standalone="no" ?>
<gpx xmlns="http://www.topografix.com/GPX/1/1" xmlns:xsi="http://www.w3.org/2001/XMLSchema-instance" xsi:schemaLocation="http://www.topografix.com/GPX/1/1 http://www.topografix.com/GPX/1/1/gpx.xsd" version="1.1" creator="VisuGPX - https://www.visugpx.com">
  <metadata>
    <name>La descente pépère du Bèlvédère et l\'exercice psychologique de Warembourg</name>
    <desc><![CDATA[La descente pépère du Bèlvédère et l\'exercice psychologique de Warembourg]]></desc>
  </metadata>
  <trk>
    <name><![CDATA[Rue Antoine Coysevox]]></name>
    <trkseg>
      <trkpt lat="47.51796" lon="6.77478">
        <ele>385.7</ele>
        <time>2014-12-21T08:15:02Z</time>
      </trkpt>
      <trkpt lat="47.51793" lon="6.77458">
        <ele>354</ele>
        <time>2014-12-21T08:17:43Z</time>
      </trkpt>
      <trkpt lat="47.51805" lon="6.77483">
        <ele>380.1</ele>
        <time>2014-12-21T08:18:13Z</time>
      </trkpt>
      <trkpt lat="47.51733" lon="6.77467">
        <ele>387.9</ele>
        <time>2014-12-21T08:18:31.001Z</time>
      </trkpt>
      <trkpt lat="47.51714" lon="6.77546">
        <ele>398.4</ele>
        <time>2014-12-21T08:18:43Z</time>
      </trkpt>
      <trkpt lat="47.51507" lon="6.77306">
        <ele>390.6</ele>
        <time>2014-12-21T08:19:24Z</time>
      </trkpt>
      <trkpt lat="47.51486" lon="6.77196">
        <ele>387</ele>
        <time>2014-12-21T08:19:35Z</time>
      </trkpt>
      <trkpt lat="47.51373" lon="6.77245">
        <ele>385.4</ele>
        <time>2014-12-21T08:19:54Z</time>
      </trkpt>
      <trkpt lat="47.51334" lon="6.77279">
        <ele>388.7</ele>
        <time>2014-12-21T08:20:06Z</time>
      </trkpt>
      <trkpt lat="47.51271" lon="6.77249">
        <ele>393.3</ele>
        <time>2014-12-21T08:20:27Z</time>
      </trkpt>
      <trkpt lat="47.51178" lon="6.77074">
        <ele>389.5</ele>
        <time>2014-12-21T08:20:55Z</time>
      </trkpt>
      <trkpt lat="47.51025" lon="6.7694">
        <ele>386.8</ele>
        <time>2014-12-21T08:21:26Z</time>
      </trkpt>
      <trkpt lat="47.51" lon="6.76898">
        <ele>388.2</ele>
        <time>2014-12-21T08:21:34Z</time>
      </trkpt>
      <trkpt lat="47.5093" lon="6.76857">
        <ele>389.2</ele>
        <time>2014-12-21T08:21:53Z</time>
      </trkpt>
      <trkpt lat="47.50823" lon="6.76589">
        <ele>394.4</ele>
        <time>2014-12-21T08:22:55Z</time>
      </trkpt>
      <trkpt lat="47.50653" lon="6.76583">
        <ele>407</ele>
        <time>2014-12-21T08:24:04Z</time>
      </trkpt>
      <trkpt lat="47.50603" lon="6.76618">
        <ele>408.2</ele>
        <time>2014-12-21T08:24:22.652Z</time>
      </trkpt>
      <trkpt lat="47.50252" lon="6.76732">
        <ele>411.7</ele>
        <time>2014-12-21T08:26:08Z</time>
      </trkpt>
      <trkpt lat="47.50225" lon="6.76689">
        <ele>411.1</ele>
        <time>2014-12-21T08:26:24Z</time>
      </trkpt>
      <trkpt lat="47.50195" lon="6.76594">
        <ele>402.5</ele>
        <time>2014-12-21T08:26:49.001Z</time>
      </trkpt>
      <trkpt lat="47.50198" lon="6.76572">
        <ele>402.2</ele>
        <time>2014-12-21T08:27:00Z</time>
      </trkpt>
      <trkpt lat="47.50223" lon="6.76564">
        <ele>399.4</ele>
        <time>2014-12-21T08:27:09Z</time>
      </trkpt>
      <trkpt lat="47.50104" lon="6.75999">
        <ele>395.2</ele>
        <time>2014-12-21T08:28:15Z</time>
      </trkpt>
      <trkpt lat="47.50024" lon="6.75841">
        <ele>389</ele>
        <time>2014-12-21T08:28:35Z</time>
      </trkpt>
      <trkpt lat="47.49947" lon="6.75721">
        <ele>382.2</ele>
        <time>2014-12-21T08:28:50Z</time>
      </trkpt>
      <trkpt lat="47.49923" lon="6.75701">
        <ele>380.8</ele>
        <time>2014-12-21T08:28:54Z</time>
      </trkpt>
      <trkpt lat="47.49677" lon="6.75762">
        <ele>361.4</ele>
        <time>2014-12-21T08:29:26.001Z</time>
      </trkpt>
      <trkpt lat="47.49582" lon="6.75749">
        <ele>355.2</ele>
        <time>2014-12-21T08:29:42Z</time>
      </trkpt>
      <trkpt lat="47.49576" lon="6.75738">
        <ele>353.9</ele>
        <time>2014-12-21T08:29:46Z</time>
      </trkpt>
      <trkpt lat="47.49599" lon="6.75713">
        <ele>339.8</ele>
        <time>2014-12-21T08:29:58Z</time>
      </trkpt>
      <trkpt lat="47.49604" lon="6.75683">
        <ele>335.3</ele>
        <time>2014-12-21T08:30:02Z</time>
      </trkpt>
      <trkpt lat="47.49584" lon="6.75662">
        <ele>332.6</ele>
        <time>2014-12-21T08:30:07Z</time>
      </trkpt>
      <trkpt lat="47.49513" lon="6.75731">
        <ele>332.5</ele>
        <time>2014-12-21T08:30:25Z</time>
      </trkpt>
      <trkpt lat="47.49481" lon="6.75735">
        <ele>333.4</ele>
        <time>2014-12-21T08:30:31Z</time>
      </trkpt>
      <trkpt lat="47.49471" lon="6.75697">
        <ele>332.8</ele>
        <time>2014-12-21T08:30:36Z</time>
      </trkpt>
      <trkpt lat="47.49449" lon="6.75693">
        <ele>332.3</ele>
        <time>2014-12-21T08:30:41Z</time>
      </trkpt>
      <trkpt lat="47.49436" lon="6.75665">
        <ele>333.7</ele>
        <time>2014-12-21T08:30:47Z</time>
      </trkpt>
      <trkpt lat="47.49337" lon="6.75722">
        <ele>333.6</ele>
        <time>2014-12-21T08:31:12.998Z</time>
      </trkpt>
      <trkpt lat="47.49274" lon="6.7579">
        <ele>329.7</ele>
        <time>2014-12-21T08:31:26Z</time>
      </trkpt>
      <trkpt lat="47.49152" lon="6.76045">
        <ele>316.6</ele>
        <time>2014-12-21T08:32:03Z</time>
      </trkpt>
      <trkpt lat="47.49131" lon="6.76137">
        <ele>318</ele>
        <time>2014-12-21T08:32:15Z</time>
      </trkpt>
      <trkpt lat="47.49112" lon="6.76347">
        <ele>318.9</ele>
        <time>2014-12-21T08:32:45Z</time>
      </trkpt>
      <trkpt lat="47.49111" lon="6.76492">
        <ele>322.6</ele>
        <time>2014-12-21T08:33:02Z</time>
      </trkpt>
      <trkpt lat="47.49131" lon="6.76517">
        <ele>316</ele>
        <time>2014-12-21T08:33:05Z</time>
      </trkpt>
      <trkpt lat="47.49168" lon="6.76505">
        <ele>314.1</ele>
        <time>2014-12-21T08:33:12Z</time>
      </trkpt>
      <trkpt lat="47.49179" lon="6.76488">
        <ele>314.6</ele>
        <time>2014-12-21T08:33:18Z</time>
      </trkpt>
      <trkpt lat="47.49173" lon="6.76473">
        <ele>327.9</ele>
        <time>2014-12-21T08:36:07Z</time>
      </trkpt>
      <trkpt lat="47.49186" lon="6.76489">
        <ele>328.8</ele>
        <time>2014-12-21T08:36:28Z</time>
      </trkpt>
      <trkpt lat="47.49122" lon="6.76522">
        <ele>329.6</ele>
        <time>2014-12-21T08:36:45Z</time>
      </trkpt>
      <trkpt lat="47.49147" lon="6.76782">
        <ele>321.9</ele>
        <time>2014-12-21T08:37:24Z</time>
      </trkpt>
      <trkpt lat="47.49142" lon="6.76958">
        <ele>317.3</ele>
        <time>2014-12-21T08:37:51Z</time>
      </trkpt>
      <trkpt lat="47.49165" lon="6.77031">
        <ele>317.1</ele>
        <time>2014-12-21T08:38:00Z</time>
      </trkpt>
      <trkpt lat="47.49191" lon="6.77247">
        <ele>320.4</ele>
        <time>2014-12-21T08:38:42Z</time>
      </trkpt>
      <trkpt lat="47.49179" lon="6.77331">
        <ele>321.4</ele>
        <time>2014-12-21T08:38:54Z</time>
      </trkpt>
      <trkpt lat="47.48959" lon="6.7731">
        <ele>321.2</ele>
        <time>2014-12-21T08:39:38Z</time>
      </trkpt>
      <trkpt lat="47.48861" lon="6.77272">
        <ele>322</ele>
        <time>2014-12-21T08:39:56Z</time>
      </trkpt>
      <trkpt lat="47.48711" lon="6.77168">
        <ele>321.2</ele>
        <time>2014-12-21T08:40:24Z</time>
      </trkpt>
      <trkpt lat="47.48637" lon="6.77084">
        <ele>321</ele>
        <time>2014-12-21T08:40:40Z</time>
      </trkpt>
      <trkpt lat="47.483" lon="6.7687">
        <ele>318.6</ele>
        <time>2014-12-21T08:41:40Z</time>
      </trkpt>
      <trkpt lat="47.48253" lon="6.76805">
        <ele>318.4</ele>
        <time>2014-12-21T08:41:50.999Z</time>
      </trkpt>
      <trkpt lat="47.48177" lon="6.76763">
        <ele>320.2</ele>
        <time>2014-12-21T08:42:04Z</time>
      </trkpt>
      <trkpt lat="47.48159" lon="6.76731">
        <ele>320.4</ele>
        <time>2014-12-21T08:42:09Z</time>
      </trkpt>
      <trkpt lat="47.48162" lon="6.76714">
        <ele>325.4</ele>
        <time>2014-12-21T08:42:10.999Z</time>
      </trkpt>
      <trkpt lat="47.48103" lon="6.76606">
        <ele>316.9</ele>
        <time>2014-12-21T08:42:27.999Z</time>
      </trkpt>
      <trkpt lat="47.4813" lon="6.76546">
        <ele>323.7</ele>
        <time>2014-12-21T08:42:39Z</time>
      </trkpt>
      <trkpt lat="47.48119" lon="6.7651">
        <ele>320.2</ele>
        <time>2014-12-21T08:42:46Z</time>
      </trkpt>
      <trkpt lat="47.48036" lon="6.76576">
        <ele>321.1</ele>
        <time>2014-12-21T08:43:06Z</time>
      </trkpt>
      <trkpt lat="47.47937" lon="6.76619">
        <ele>318.7</ele>
        <time>2014-12-21T08:43:30Z</time>
      </trkpt>
      <trkpt lat="47.47893" lon="6.76668">
        <ele>317.3</ele>
        <time>2014-12-21T08:43:38Z</time>
      </trkpt>
      <trkpt lat="47.4783" lon="6.76798">
        <ele>318</ele>
        <time>2014-12-21T08:43:54Z</time>
      </trkpt>
      <trkpt lat="47.47775" lon="6.76784">
        <ele>321.9</ele>
        <time>2014-12-21T08:44:04Z</time>
      </trkpt>
      <trkpt lat="47.47732" lon="6.76794">
        <ele>319.8</ele>
        <time>2014-12-21T08:44:13Z</time>
      </trkpt>
      <trkpt lat="47.47651" lon="6.77022">
        <ele>322.8</ele>
        <time>2014-12-21T08:44:49Z</time>
      </trkpt>
      <trkpt lat="47.47643" lon="6.77093">
        <ele>321.1</ele>
        <time>2014-12-21T08:45:02Z</time>
      </trkpt>
      <trkpt lat="47.47608" lon="6.77181">
        <ele>318.3</ele>
        <time>2014-12-21T08:45:13Z</time>
      </trkpt>
      <trkpt lat="47.47534" lon="6.77131">
        <ele>322.5</ele>
        <time>2014-12-21T08:45:36Z</time>
      </trkpt>
      <trkpt lat="47.47511" lon="6.77147">
        <ele>323.4</ele>
        <time>2014-12-21T08:45:42Z</time>
      </trkpt>
      <trkpt lat="47.47512" lon="6.77198">
        <ele>322.9</ele>
        <time>2014-12-21T08:45:49Z</time>
      </trkpt>
      <trkpt lat="47.47469" lon="6.77274">
        <ele>323.1</ele>
        <time>2014-12-21T08:46:10Z</time>
      </trkpt>
      <trkpt lat="47.47542" lon="6.77395">
        <ele>323.5</ele>
        <time>2014-12-21T08:46:40Z</time>
      </trkpt>
      <trkpt lat="47.47458" lon="6.77526">
        <ele>330.2</ele>
        <time>2014-12-21T08:47:15Z</time>
      </trkpt>
      <trkpt lat="47.47376" lon="6.77555">
        <ele>324.3</ele>
        <time>2014-12-21T08:47:40Z</time>
      </trkpt>
      <trkpt lat="47.47179" lon="6.77543">
        <ele>346.9</ele>
        <time>2014-12-21T08:50:27Z</time>
      </trkpt>
      <trkpt lat="47.47116" lon="6.77665">
        <ele>342</ele>
        <time>2014-12-21T08:50:53Z</time>
      </trkpt>
      <trkpt lat="47.47057" lon="6.77598">
        <ele>341.6</ele>
        <time>2014-12-21T08:51:09Z</time>
      </trkpt>
      <trkpt lat="47.46933" lon="6.77414">
        <ele>349.9</ele>
        <time>2014-12-21T08:52:06Z</time>
      </trkpt>
      <trkpt lat="47.46906" lon="6.77441">
        <ele>350.9</ele>
        <time>2014-12-21T08:52:19Z</time>
      </trkpt>
      <trkpt lat="47.46848" lon="6.77428">
        <ele>357.3</ele>
        <time>2014-12-21T08:52:47Z</time>
      </trkpt>
      <trkpt lat="47.46836" lon="6.77438">
        <ele>359.4</ele>
        <time>2014-12-21T08:52:57Z</time>
      </trkpt>
      <trkpt lat="47.46819" lon="6.77536">
        <ele>381.5</ele>
        <time>2014-12-21T08:53:45Z</time>
      </trkpt>
      <trkpt lat="47.46775" lon="6.77683">
        <ele>373.7</ele>
        <time>2014-12-21T08:54:49Z</time>
      </trkpt>
      <trkpt lat="47.46747" lon="6.77858">
        <ele>367.6</ele>
        <time>2014-12-21T08:55:47Z</time>
      </trkpt>
      <trkpt lat="47.46728" lon="6.77884">
        <ele>367.2</ele>
        <time>2014-12-21T08:56:01Z</time>
      </trkpt>
      <trkpt lat="47.46706" lon="6.77966">
        <ele>365.5</ele>
        <time>2014-12-21T08:56:33Z</time>
      </trkpt>
      <trkpt lat="47.46711" lon="6.78017">
        <ele>366.8</ele>
        <time>2014-12-21T08:56:43Z</time>
      </trkpt>
      <trkpt lat="47.46641" lon="6.78153">
        <ele>364.4</ele>
        <time>2014-12-21T08:57:31.999Z</time>
      </trkpt>
      <trkpt lat="47.46619" lon="6.78267">
        <ele>377</ele>
        <time>2014-12-21T08:58:11Z</time>
      </trkpt>
      <trkpt lat="47.46484" lon="6.78259">
        <ele>386.1</ele>
        <time>2014-12-21T08:59:30Z</time>
      </trkpt>
      <trkpt lat="47.46489" lon="6.78284">
        <ele>380.7</ele>
        <time>2014-12-21T09:01:22.829Z</time>
      </trkpt>
      <trkpt lat="47.46468" lon="6.78267">
        <ele>393.8</ele>
        <time>2014-12-21T09:02:37Z</time>
      </trkpt>
      <trkpt lat="47.46393" lon="6.78258">
        <ele>398.5</ele>
        <time>2014-12-21T09:03:11Z</time>
      </trkpt>
      <trkpt lat="47.46241" lon="6.78294">
        <ele>403.7</ele>
        <time>2014-12-21T09:04:06.999Z</time>
      </trkpt>
      <trkpt lat="47.46113" lon="6.78292">
        <ele>417.3</ele>
        <time>2014-12-21T09:04:59Z</time>
      </trkpt>
      <trkpt lat="47.46029" lon="6.78348">
        <ele>418.5</ele>
        <time>2014-12-21T09:05:24Z</time>
      </trkpt>
      <trkpt lat="47.45991" lon="6.78415">
        <ele>402.7</ele>
        <time>2014-12-21T09:05:34Z</time>
      </trkpt>
      <trkpt lat="47.45951" lon="6.78442">
        <ele>402</ele>
        <time>2014-12-21T09:05:41Z</time>
      </trkpt>
      <trkpt lat="47.45944" lon="6.78521">
        <ele>394.7</ele>
        <time>2014-12-21T09:05:50Z</time>
      </trkpt>
      <trkpt lat="47.45931" lon="6.78535">
        <ele>391.1</ele>
        <time>2014-12-21T09:05:53Z</time>
      </trkpt>
      <trkpt lat="47.45788" lon="6.78396">
        <ele>376.2</ele>
        <time>2014-12-21T09:06:13Z</time>
      </trkpt>
      <trkpt lat="47.45737" lon="6.78374">
        <ele>372.8</ele>
        <time>2014-12-21T09:06:18Z</time>
      </trkpt>
      <trkpt lat="47.45625" lon="6.78392">
        <ele>367.2</ele>
        <time>2014-12-21T09:06:29Z</time>
      </trkpt>
      <trkpt lat="47.45487" lon="6.78466">
        <ele>367.8</ele>
        <time>2014-12-21T09:06:47Z</time>
      </trkpt>
      <trkpt lat="47.454" lon="6.78532">
        <ele>359.4</ele>
        <time>2014-12-21T09:07:02Z</time>
      </trkpt>
      <trkpt lat="47.45395" lon="6.78566">
        <ele>355.3</ele>
        <time>2014-12-21T09:07:06Z</time>
      </trkpt>
      <trkpt lat="47.45483" lon="6.78764">
        <ele>346.7</ele>
        <time>2014-12-21T09:07:39Z</time>
      </trkpt>
      <trkpt lat="47.45369" lon="6.78895">
        <ele>344.7</ele>
        <time>2014-12-21T09:08:15Z</time>
      </trkpt>
      <trkpt lat="47.45277" lon="6.79031">
        <ele>346.2</ele>
        <time>2014-12-21T09:09:15Z</time>
      </trkpt>
      <trkpt lat="47.45247" lon="6.7912">
        <ele>346.5</ele>
        <time>2014-12-21T09:09:40Z</time>
      </trkpt>
      <trkpt lat="47.45219" lon="6.79145">
        <ele>346.6</ele>
        <time>2014-12-21T09:09:50Z</time>
      </trkpt>
      <trkpt lat="47.45202" lon="6.79247">
        <ele>346.7</ele>
        <time>2014-12-21T09:10:12Z</time>
      </trkpt>
      <trkpt lat="47.45128" lon="6.79515">
        <ele>347.6</ele>
        <time>2014-12-21T09:10:54Z</time>
      </trkpt>
      <trkpt lat="47.45051" lon="6.7963">
        <ele>342.4</ele>
        <time>2014-12-21T09:11:24Z</time>
      </trkpt>
      <trkpt lat="47.45036" lon="6.79714">
        <ele>347.5</ele>
        <time>2014-12-21T09:11:53Z</time>
      </trkpt>
      <trkpt lat="47.45012" lon="6.79688">
        <ele>362</ele>
        <time>2014-12-21T09:12:39Z</time>
      </trkpt>
      <trkpt lat="47.44963" lon="6.79688">
        <ele>362.9</ele>
        <time>2014-12-21T09:13:15Z</time>
      </trkpt>
      <trkpt lat="47.44954" lon="6.79722">
        <ele>364.5</ele>
        <time>2014-12-21T09:13:28Z</time>
      </trkpt>
      <trkpt lat="47.44929" lon="6.79746">
        <ele>363.3</ele>
        <time>2014-12-21T09:13:48Z</time>
      </trkpt>
      <trkpt lat="47.44925" lon="6.79769">
        <ele>363.6</ele>
        <time>2014-12-21T09:13:56.002Z</time>
      </trkpt>
      <trkpt lat="47.44883" lon="6.79723">
        <ele>365.4</ele>
        <time>2014-12-21T09:14:25Z</time>
      </trkpt>
      <trkpt lat="47.44837" lon="6.79712">
        <ele>366.8</ele>
        <time>2014-12-21T09:14:46Z</time>
      </trkpt>
      <trkpt lat="47.44821" lon="6.79724">
        <ele>366.9</ele>
        <time>2014-12-21T09:14:54Z</time>
      </trkpt>
      <trkpt lat="47.44787" lon="6.79978">
        <ele>368.9</ele>
        <time>2014-12-21T09:16:09Z</time>
      </trkpt>
      <trkpt lat="47.44631" lon="6.7995">
        <ele>370.8</ele>
        <time>2014-12-21T09:17:32Z</time>
      </trkpt>
      <trkpt lat="47.44413" lon="6.79882">
        <ele>377.5</ele>
        <time>2014-12-21T09:19:24Z</time>
      </trkpt>
      <trkpt lat="47.44387" lon="6.79854">
        <ele>384.9</ele>
        <time>2014-12-21T09:19:49Z</time>
      </trkpt>
      <trkpt lat="47.44403" lon="6.79784">
        <ele>390.7</ele>
        <time>2014-12-21T09:20:22Z</time>
      </trkpt>
      <trkpt lat="47.44386" lon="6.79775">
        <ele>397.6</ele>
        <time>2014-12-21T09:20:36Z</time>
      </trkpt>
      <trkpt lat="47.44315" lon="6.79829">
        <ele>408</ele>
        <time>2014-12-21T09:21:30Z</time>
      </trkpt>
      <trkpt lat="47.44288" lon="6.79873">
        <ele>424.7</ele>
        <time>2014-12-21T09:22:35Z</time>
      </trkpt>
      <trkpt lat="47.44194" lon="6.79921">
        <ele>441.8</ele>
        <time>2014-12-21T09:24:33Z</time>
      </trkpt>
      <trkpt lat="47.44199" lon="6.79676">
        <ele>458.1</ele>
        <time>2014-12-21T09:28:01Z</time>
      </trkpt>
      <trkpt lat="47.44139" lon="6.79616">
        <ele>460.9</ele>
        <time>2014-12-21T09:28:56Z</time>
      </trkpt>
      <trkpt lat="47.44036" lon="6.79561">
        <ele>463.3</ele>
        <time>2014-12-21T09:30:46Z</time>
      </trkpt>
      <trkpt lat="47.43972" lon="6.79583">
        <ele>462.7</ele>
        <time>2014-12-21T09:31:24Z</time>
      </trkpt>
      <trkpt lat="47.43936" lon="6.79573">
        <ele>473.3</ele>
        <time>2014-12-21T09:31:47Z</time>
      </trkpt>
      <trkpt lat="47.43901" lon="6.79536">
        <ele>482.2</ele>
        <time>2014-12-21T09:32:05Z</time>
      </trkpt>
      <trkpt lat="47.43862" lon="6.79526">
        <ele>472.3</ele>
        <time>2014-12-21T09:32:24Z</time>
      </trkpt>
      <trkpt lat="47.43815" lon="6.79547">
        <ele>474.5</ele>
        <time>2014-12-21T09:32:49Z</time>
      </trkpt>
      <trkpt lat="47.43807" lon="6.7953">
        <ele>476.2</ele>
        <time>2014-12-21T09:32:58Z</time>
      </trkpt>
      <trkpt lat="47.43804" lon="6.79438">
        <ele>485.9</ele>
        <time>2014-12-21T09:33:37Z</time>
      </trkpt>
      <trkpt lat="47.43715" lon="6.79414">
        <ele>480.7</ele>
        <time>2014-12-21T09:34:18Z</time>
      </trkpt>
      <trkpt lat="47.43691" lon="6.79431">
        <ele>482</ele>
        <time>2014-12-21T09:34:29Z</time>
      </trkpt>
      <trkpt lat="47.43621" lon="6.79427">
        <ele>488.3</ele>
        <time>2014-12-21T09:35:08Z</time>
      </trkpt>
      <trkpt lat="47.43491" lon="6.7947">
        <ele>483.3</ele>
        <time>2014-12-21T09:35:47Z</time>
      </trkpt>
      <trkpt lat="47.43466" lon="6.79498">
        <ele>482.3</ele>
        <time>2014-12-21T09:35:55Z</time>
      </trkpt>
      <trkpt lat="47.43312" lon="6.79548">
        <ele>500.5</ele>
        <time>2014-12-21T09:37:00Z</time>
      </trkpt>
      <trkpt lat="47.43186" lon="6.79555">
        <ele>492.9</ele>
        <time>2014-12-21T09:37:38Z</time>
      </trkpt>
      <trkpt lat="47.43148" lon="6.79596">
        <ele>500.1</ele>
        <time>2014-12-21T09:38:04Z</time>
      </trkpt>
      <trkpt lat="47.4309" lon="6.79563">
        <ele>498.1</ele>
        <time>2014-12-21T09:38:44Z</time>
      </trkpt>
      <trkpt lat="47.43071" lon="6.79586">
        <ele>487.4</ele>
        <time>2014-12-21T09:48:16Z</time>
      </trkpt>
      <trkpt lat="47.42996" lon="6.79592">
        <ele>495.2</ele>
        <time>2014-12-21T09:48:45Z</time>
      </trkpt>
      <trkpt lat="47.42854" lon="6.7957">
        <ele>489.7</ele>
        <time>2014-12-21T09:49:24Z</time>
      </trkpt>
      <trkpt lat="47.4282" lon="6.79578">
        <ele>492.2</ele>
        <time>2014-12-21T09:49:34Z</time>
      </trkpt>
      <trkpt lat="47.42621" lon="6.79529">
        <ele>496</ele>
        <time>2014-12-21T09:50:51Z</time>
      </trkpt>
      <trkpt lat="47.42546" lon="6.79537">
        <ele>499.6</ele>
        <time>2014-12-21T09:51:24Z</time>
      </trkpt>
      <trkpt lat="47.425" lon="6.79512">
        <ele>499.4</ele>
        <time>2014-12-21T09:51:41Z</time>
      </trkpt>
      <trkpt lat="47.42459" lon="6.79519">
        <ele>488.1</ele>
        <time>2014-12-21T09:51:52Z</time>
      </trkpt>
      <trkpt lat="47.42308" lon="6.79466">
        <ele>501.3</ele>
        <time>2014-12-21T09:52:45Z</time>
      </trkpt>
      <trkpt lat="47.42162" lon="6.79438">
        <ele>512.8</ele>
        <time>2014-12-21T09:53:52Z</time>
      </trkpt>
      <trkpt lat="47.42068" lon="6.79461">
        <ele>510.2</ele>
        <time>2014-12-21T09:54:54Z</time>
      </trkpt>
      <trkpt lat="47.4204" lon="6.79455">
        <ele>516</ele>
        <time>2014-12-21T09:55:09Z</time>
      </trkpt>
      <trkpt lat="47.41997" lon="6.79472">
        <ele>511.4</ele>
        <time>2014-12-21T09:55:31Z</time>
      </trkpt>
      <trkpt lat="47.41944" lon="6.79573">
        <ele>500.1</ele>
        <time>2014-12-21T09:56:04Z</time>
      </trkpt>
      <trkpt lat="47.41905" lon="6.79678">
        <ele>506.6</ele>
        <time>2014-12-21T09:56:34Z</time>
      </trkpt>
      <trkpt lat="47.41888" lon="6.79873">
        <ele>508.3</ele>
        <time>2014-12-21T09:57:28Z</time>
      </trkpt>
      <trkpt lat="47.41829" lon="6.80049">
        <ele>489.1</ele>
        <time>2014-12-21T09:58:24Z</time>
      </trkpt>
      <trkpt lat="47.41771" lon="6.80053">
        <ele>492.4</ele>
        <time>2014-12-21T10:00:08Z</time>
      </trkpt>
      <trkpt lat="47.4166" lon="6.79984">
        <ele>502.5</ele>
        <time>2014-12-21T10:01:41Z</time>
      </trkpt>
      <trkpt lat="47.41628" lon="6.79946">
        <ele>503.2</ele>
        <time>2014-12-21T10:02:02Z</time>
      </trkpt>
      <trkpt lat="47.41589" lon="6.79863">
        <ele>499.2</ele>
        <time>2014-12-21T10:02:23Z</time>
      </trkpt>
      <trkpt lat="47.41509" lon="6.79852">
        <ele>498</ele>
        <time>2014-12-21T10:03:09Z</time>
      </trkpt>
      <trkpt lat="47.41428" lon="6.79817">
        <ele>492.9</ele>
        <time>2014-12-21T10:04:00Z</time>
      </trkpt>
      <trkpt lat="47.41302" lon="6.79711">
        <ele>510.8</ele>
        <time>2014-12-21T10:06:07Z</time>
      </trkpt>
      <trkpt lat="47.4126" lon="6.79728">
        <ele>509.3</ele>
        <time>2014-12-21T10:11:39Z</time>
      </trkpt>
      <trkpt lat="47.41239" lon="6.79692">
        <ele>501.9</ele>
        <time>2014-12-21T10:12:09Z</time>
      </trkpt>
      <trkpt lat="47.41215" lon="6.79687">
        <ele>497.9</ele>
        <time>2014-12-21T10:12:16Z</time>
      </trkpt>
      <trkpt lat="47.41175" lon="6.79733">
        <ele>499.4</ele>
        <time>2014-12-21T10:12:30Z</time>
      </trkpt>
      <trkpt lat="47.41158" lon="6.79737">
        <ele>491.2</ele>
        <time>2014-12-21T10:12:37Z</time>
      </trkpt>
      <trkpt lat="47.41166" lon="6.79661">
        <ele>489.7</ele>
        <time>2014-12-21T10:13:05Z</time>
      </trkpt>
      <trkpt lat="47.4119" lon="6.79576">
        <ele>478.4</ele>
        <time>2014-12-21T10:13:36Z</time>
      </trkpt>
      <trkpt lat="47.41191" lon="6.79465">
        <ele>467.4</ele>
        <time>2014-12-21T10:14:06Z</time>
      </trkpt>
      <trkpt lat="47.412" lon="6.7944">
        <ele>452.3</ele>
        <time>2014-12-21T10:14:16Z</time>
      </trkpt>
      <trkpt lat="47.41198" lon="6.79385">
        <ele>444.7</ele>
        <time>2014-12-21T10:14:35Z</time>
      </trkpt>
      <trkpt lat="47.41234" lon="6.79223">
        <ele>420.9</ele>
        <time>2014-12-21T10:15:24Z</time>
      </trkpt>
      <trkpt lat="47.41217" lon="6.79219">
        <ele>406.7</ele>
        <time>2014-12-21T10:17:52Z</time>
      </trkpt>
      <trkpt lat="47.41247" lon="6.79035">
        <ele>390.3</ele>
        <time>2014-12-21T10:22:37Z</time>
      </trkpt>
      <trkpt lat="47.41215" lon="6.7892">
        <ele>372.8</ele>
        <time>2014-12-21T10:22:55Z</time>
      </trkpt>
      <trkpt lat="47.41176" lon="6.78857">
        <ele>371.4</ele>
        <time>2014-12-21T10:23:08Z</time>
      </trkpt>
      <trkpt lat="47.41158" lon="6.78845">
        <ele>362.9</ele>
        <time>2014-12-21T10:23:42Z</time>
      </trkpt>
      <trkpt lat="47.41185" lon="6.78812">
        <ele>355.9</ele>
        <time>2014-12-21T10:23:49Z</time>
      </trkpt>
      <trkpt lat="47.41187" lon="6.78757">
        <ele>342.7</ele>
        <time>2014-12-21T10:26:10Z</time>
      </trkpt>
      <trkpt lat="47.41143" lon="6.78494">
        <ele>342.7</ele>
        <time>2014-12-21T10:27:16Z</time>
      </trkpt>
      <trkpt lat="47.41142" lon="6.78247">
        <ele>336.8</ele>
        <time>2014-12-21T10:28:24Z</time>
      </trkpt>
      <trkpt lat="47.41105" lon="6.78008">
        <ele>344.2</ele>
        <time>2014-12-21T10:29:13Z</time>
      </trkpt>
      <trkpt lat="47.41055" lon="6.77849">
        <ele>345.4</ele>
        <time>2014-12-21T10:29:41Z</time>
      </trkpt>
      <trkpt lat="47.41003" lon="6.77767">
        <ele>340.7</ele>
        <time>2014-12-21T10:29:59.999Z</time>
      </trkpt>
      <trkpt lat="47.41138" lon="6.77595">
        <ele>339.7</ele>
        <time>2014-12-21T10:30:44Z</time>
      </trkpt>
      <trkpt lat="47.41251" lon="6.77713">
        <ele>336.3</ele>
        <time>2014-12-21T10:31:15Z</time>
      </trkpt>
      <trkpt lat="47.41304" lon="6.77794">
        <ele>332.6</ele>
        <time>2014-12-21T10:31:33Z</time>
      </trkpt>
      <trkpt lat="47.41351" lon="6.77915">
        <ele>337</ele>
        <time>2014-12-21T10:32:00Z</time>
      </trkpt>
      <trkpt lat="47.41416" lon="6.77793">
        <ele>342.2</ele>
        <time>2014-12-21T10:32:28Z</time>
      </trkpt>
      <trkpt lat="47.41445" lon="6.77679">
        <ele>343.9</ele>
        <time>2014-12-21T10:32:51Z</time>
      </trkpt>
      <trkpt lat="47.41476" lon="6.77612">
        <ele>344.8</ele>
        <time>2014-12-21T10:33:10Z</time>
      </trkpt>
      <trkpt lat="47.41576" lon="6.77612">
        <ele>347.9</ele>
        <time>2014-12-21T10:33:39Z</time>
      </trkpt>
      <trkpt lat="47.41689" lon="6.77677">
        <ele>347</ele>
        <time>2014-12-21T10:34:12Z</time>
      </trkpt>
      <trkpt lat="47.4181" lon="6.77628">
        <ele>354</ele>
        <time>2014-12-21T10:34:58Z</time>
      </trkpt>
      <trkpt lat="47.41831" lon="6.77596">
        <ele>353.3</ele>
        <time>2014-12-21T10:35:09Z</time>
      </trkpt>
      <trkpt lat="47.41869" lon="6.77479">
        <ele>354</ele>
        <time>2014-12-21T10:35:45Z</time>
      </trkpt>
      <trkpt lat="47.4187" lon="6.77417">
        <ele>354.8</ele>
        <time>2014-12-21T10:35:57Z</time>
      </trkpt>
      <trkpt lat="47.41858" lon="6.77359">
        <ele>349.2</ele>
        <time>2014-12-21T10:36:08.999Z</time>
      </trkpt>
      <trkpt lat="47.41876" lon="6.77219">
        <ele>369</ele>
        <time>2014-12-21T10:36:46Z</time>
      </trkpt>
      <trkpt lat="47.41905" lon="6.77112">
        <ele>372.9</ele>
        <time>2014-12-21T10:37:21Z</time>
      </trkpt>
      <trkpt lat="47.41903" lon="6.77083">
        <ele>382.4</ele>
        <time>2014-12-21T10:37:30Z</time>
      </trkpt>
      <trkpt lat="47.4192" lon="6.77021">
        <ele>392</ele>
        <time>2014-12-21T10:37:52Z</time>
      </trkpt>
      <trkpt lat="47.41923" lon="6.76961">
        <ele>403.1</ele>
        <time>2014-12-21T10:38:08Z</time>
      </trkpt>
      <trkpt lat="47.41955" lon="6.76835">
        <ele>393.7</ele>
        <time>2014-12-21T10:38:43Z</time>
      </trkpt>
      <trkpt lat="47.4195" lon="6.76716">
        <ele>409.1</ele>
        <time>2014-12-21T10:39:24Z</time>
      </trkpt>
      <trkpt lat="47.4197" lon="6.76658">
        <ele>394</ele>
        <time>2014-12-21T10:39:39Z</time>
      </trkpt>
      <trkpt lat="47.41938" lon="6.76494">
        <ele>411.3</ele>
        <time>2014-12-21T10:40:24Z</time>
      </trkpt>
      <trkpt lat="47.41936" lon="6.76408">
        <ele>407.1</ele>
        <time>2014-12-21T10:40:43Z</time>
      </trkpt>
      <trkpt lat="47.41922" lon="6.76392">
        <ele>409.1</ele>
        <time>2014-12-21T10:40:46Z</time>
      </trkpt>
      <trkpt lat="47.41903" lon="6.76019">
        <ele>419.2</ele>
        <time>2014-12-21T10:42:37Z</time>
      </trkpt>
      <trkpt lat="47.41887" lon="6.75997">
        <ele>421.7</ele>
        <time>2014-12-21T10:42:44Z</time>
      </trkpt>
      <trkpt lat="47.41869" lon="6.7601">
        <ele>429.5</ele>
        <time>2014-12-21T10:42:51Z</time>
      </trkpt>
      <trkpt lat="47.41798" lon="6.76185">
        <ele>430.3</ele>
        <time>2014-12-21T10:43:34Z</time>
      </trkpt>
      <trkpt lat="47.41739" lon="6.76404">
        <ele>443.4</ele>
        <time>2014-12-21T10:44:28Z</time>
      </trkpt>
      <trkpt lat="47.41715" lon="6.76607">
        <ele>442.7</ele>
        <time>2014-12-21T10:45:12Z</time>
      </trkpt>
      <trkpt lat="47.41684" lon="6.7669">
        <ele>451</ele>
        <time>2014-12-21T10:45:34Z</time>
      </trkpt>
      <trkpt lat="47.41672" lon="6.76761">
        <ele>443.2</ele>
        <time>2014-12-21T10:45:50Z</time>
      </trkpt>
      <trkpt lat="47.41677" lon="6.76813">
        <ele>454.9</ele>
        <time>2014-12-21T10:46:01Z</time>
      </trkpt>
      <trkpt lat="47.41709" lon="6.76898">
        <ele>462.8</ele>
        <time>2014-12-21T10:46:23Z</time>
      </trkpt>
      <trkpt lat="47.4171" lon="6.76928">
        <ele>459.9</ele>
        <time>2014-12-21T10:46:29Z</time>
      </trkpt>
      <trkpt lat="47.41652" lon="6.77173">
        <ele>459.7</ele>
        <time>2014-12-21T10:47:28Z</time>
      </trkpt>
      <trkpt lat="47.41635" lon="6.77172">
        <ele>466.5</ele>
        <time>2014-12-21T10:47:35Z</time>
      </trkpt>
      <trkpt lat="47.41586" lon="6.77104">
        <ele>481</ele>
        <time>2014-12-21T10:48:03Z</time>
      </trkpt>
      <trkpt lat="47.4155" lon="6.77127">
        <ele>489.1</ele>
        <time>2014-12-21T10:48:16Z</time>
      </trkpt>
      <trkpt lat="47.41479" lon="6.77135">
        <ele>483.6</ele>
        <time>2014-12-21T10:48:39Z</time>
      </trkpt>
      <trkpt lat="47.41456" lon="6.77125">
        <ele>486</ele>
        <time>2014-12-21T10:48:47Z</time>
      </trkpt>
      <trkpt lat="47.41339" lon="6.77004">
        <ele>486.9</ele>
        <time>2014-12-21T10:49:36Z</time>
      </trkpt>
      <trkpt lat="47.41301" lon="6.77007">
        <ele>490.2</ele>
        <time>2014-12-21T10:49:47Z</time>
      </trkpt>
      <trkpt lat="47.41158" lon="6.76854">
        <ele>501.1</ele>
        <time>2014-12-21T10:50:45Z</time>
      </trkpt>
      <trkpt lat="47.41138" lon="6.7681">
        <ele>505.7</ele>
        <time>2014-12-21T10:51:00Z</time>
      </trkpt>
      <trkpt lat="47.41157" lon="6.7672">
        <ele>497.8</ele>
        <time>2014-12-21T10:51:41Z</time>
      </trkpt>
      <trkpt lat="47.41141" lon="6.76702">
        <ele>501.4</ele>
        <time>2014-12-21T10:51:56Z</time>
      </trkpt>
      <trkpt lat="47.41133" lon="6.76646">
        <ele>511.1</ele>
        <time>2014-12-21T10:52:15Z</time>
      </trkpt>
      <trkpt lat="47.41055" lon="6.76451">
        <ele>527.9</ele>
        <time>2014-12-21T10:53:24Z</time>
      </trkpt>
      <trkpt lat="47.41057" lon="6.76397">
        <ele>522.3</ele>
        <time>2014-12-21T10:53:46Z</time>
      </trkpt>
      <trkpt lat="47.41041" lon="6.76345">
        <ele>521.4</ele>
        <time>2014-12-21T10:54:01Z</time>
      </trkpt>
      <trkpt lat="47.41026" lon="6.76144">
        <ele>533.5</ele>
        <time>2014-12-21T10:55:05Z</time>
      </trkpt>
      <trkpt lat="47.41015" lon="6.7611">
        <ele>538.3</ele>
        <time>2014-12-21T10:55:16Z</time>
      </trkpt>
      <trkpt lat="47.41013" lon="6.75907">
        <ele>543.1</ele>
        <time>2014-12-21T10:56:24Z</time>
      </trkpt>
      <trkpt lat="47.41035" lon="6.75807">
        <ele>539.1</ele>
        <time>2014-12-21T10:56:54Z</time>
      </trkpt>
      <trkpt lat="47.41025" lon="6.75675">
        <ele>540.7</ele>
        <time>2014-12-21T11:01:49Z</time>
      </trkpt>
      <trkpt lat="47.41019" lon="6.75687">
        <ele>534.2</ele>
        <time>2014-12-21T11:05:24Z</time>
      </trkpt>
      <trkpt lat="47.4108" lon="6.75699">
        <ele>538.6</ele>
        <time>2014-12-21T11:11:40Z</time>
      </trkpt>
      <trkpt lat="47.41132" lon="6.75729">
        <ele>547.8</ele>
        <time>2014-12-21T11:12:04Z</time>
      </trkpt>
      <trkpt lat="47.41321" lon="6.75789">
        <ele>556.6</ele>
        <time>2014-12-21T11:13:26Z</time>
      </trkpt>
      <trkpt lat="47.41333" lon="6.75739">
        <ele>552.5</ele>
        <time>2014-12-21T11:13:42Z</time>
      </trkpt>
      <trkpt lat="47.41326" lon="6.75553">
        <ele>555.5</ele>
        <time>2014-12-21T11:15:38Z</time>
      </trkpt>
      <trkpt lat="47.41287" lon="6.75378">
        <ele>560</ele>
        <time>2014-12-21T11:18:12Z</time>
      </trkpt>
      <trkpt lat="47.41285" lon="6.75302">
        <ele>554.7</ele>
        <time>2014-12-21T11:18:36Z</time>
      </trkpt>
      <trkpt lat="47.41256" lon="6.75211">
        <ele>549.8</ele>
        <time>2014-12-21T11:19:02.999Z</time>
      </trkpt>
      <trkpt lat="47.41243" lon="6.75214">
        <ele>553.1</ele>
        <time>2014-12-21T11:19:16Z</time>
      </trkpt>
      <trkpt lat="47.41316" lon="6.75185">
        <ele>552.1</ele>
        <time>2014-12-21T11:20:38Z</time>
      </trkpt>
      <trkpt lat="47.4153" lon="6.75167">
        <ele>537.4</ele>
        <time>2014-12-21T11:21:01Z</time>
      </trkpt>
      <trkpt lat="47.4167" lon="6.75117">
        <ele>527.4</ele>
        <time>2014-12-21T11:21:24Z</time>
      </trkpt>
      <trkpt lat="47.41722" lon="6.7506">
        <ele>538.4</ele>
        <time>2014-12-21T11:21:42.001Z</time>
      </trkpt>
      <trkpt lat="47.4177" lon="6.75055">
        <ele>536.8</ele>
        <time>2014-12-21T11:21:55Z</time>
      </trkpt>
      <trkpt lat="47.41988" lon="6.75265">
        <ele>529.7</ele>
        <time>2014-12-21T11:22:50Z</time>
      </trkpt>
      <trkpt lat="47.4206" lon="6.75441">
        <ele>563.5</ele>
        <time>2014-12-21T11:23:25Z</time>
      </trkpt>
      <trkpt lat="47.42106" lon="6.75488">
        <ele>556</ele>
        <time>2014-12-21T11:23:35Z</time>
      </trkpt>
      <trkpt lat="47.42288" lon="6.75521">
        <ele>535.1</ele>
        <time>2014-12-21T11:23:57Z</time>
      </trkpt>
      <trkpt lat="47.4231" lon="6.75496">
        <ele>528.3</ele>
        <time>2014-12-21T11:23:59Z</time>
      </trkpt>
      <trkpt lat="47.42376" lon="6.75466">
        <ele>520.7</ele>
        <time>2014-12-21T11:24:06Z</time>
      </trkpt>
      <trkpt lat="47.42453" lon="6.75456">
        <ele>512.6</ele>
        <time>2014-12-21T11:24:13.999Z</time>
      </trkpt>
      <trkpt lat="47.42585" lon="6.75471">
        <ele>502.3</ele>
        <time>2014-12-21T11:24:29.998Z</time>
      </trkpt>
      <trkpt lat="47.42657" lon="6.75531">
        <ele>504</ele>
        <time>2014-12-21T11:24:46.998Z</time>
      </trkpt>
      <trkpt lat="47.42737" lon="6.75532">
        <ele>512</ele>
        <time>2014-12-21T11:25:10.001Z</time>
      </trkpt>
      <trkpt lat="47.42803" lon="6.75515">
        <ele>514.2</ele>
        <time>2014-12-21T11:25:26Z</time>
      </trkpt>
      <trkpt lat="47.42906" lon="6.75553">
        <ele>515.2</ele>
        <time>2014-12-21T11:25:52Z</time>
      </trkpt>
      <trkpt lat="47.4297" lon="6.75605">
        <ele>517.3</ele>
        <time>2014-12-21T11:26:03.002Z</time>
      </trkpt>
      <trkpt lat="47.43255" lon="6.75765">
        <ele>506.7</ele>
        <time>2014-12-21T11:26:44.001Z</time>
      </trkpt>
      <trkpt lat="47.43402" lon="6.75926">
        <ele>494.8</ele>
        <time>2014-12-21T11:27:03Z</time>
      </trkpt>
      <trkpt lat="47.43474" lon="6.76042">
        <ele>488.5</ele>
        <time>2014-12-21T11:27:13Z</time>
      </trkpt>
      <trkpt lat="47.43526" lon="6.76164">
        <ele>487.5</ele>
        <time>2014-12-21T11:27:24Z</time>
      </trkpt>
      <trkpt lat="47.43591" lon="6.76244">
        <ele>477.7</ele>
        <time>2014-12-21T11:27:34Z</time>
      </trkpt>
      <trkpt lat="47.43648" lon="6.76407">
        <ele>470.4</ele>
        <time>2014-12-21T11:27:52Z</time>
      </trkpt>
      <trkpt lat="47.43673" lon="6.76439">
        <ele>467.2</ele>
        <time>2014-12-21T11:28:04Z</time>
      </trkpt>
      <trkpt lat="47.43685" lon="6.7639">
        <ele>464.6</ele>
        <time>2014-12-21T11:29:16Z</time>
      </trkpt>
      <trkpt lat="47.43664" lon="6.76037">
        <ele>460</ele>
        <time>2014-12-21T11:30:35Z</time>
      </trkpt>
      <trkpt lat="47.43625" lon="6.75872">
        <ele>454.8</ele>
        <time>2014-12-21T11:31:05Z</time>
      </trkpt>
      <trkpt lat="47.43768" lon="6.75833">
        <ele>441.3</ele>
        <time>2014-12-21T11:32:13Z</time>
      </trkpt>
      <trkpt lat="47.43784" lon="6.75797">
        <ele>438.7</ele>
        <time>2014-12-21T11:32:41Z</time>
      </trkpt>
      <trkpt lat="47.43789" lon="6.75666">
        <ele>427.3</ele>
        <time>2014-12-21T11:33:53Z</time>
      </trkpt>
      <trkpt lat="47.43778" lon="6.7568">
        <ele>435.7</ele>
        <time>2014-12-21T11:34:16Z</time>
      </trkpt>
      <trkpt lat="47.4381" lon="6.7548">
        <ele>427.4</ele>
        <time>2014-12-21T11:34:46Z</time>
      </trkpt>
      <trkpt lat="47.43807" lon="6.75337">
        <ele>415.6</ele>
        <time>2014-12-21T11:34:57Z</time>
      </trkpt>
      <trkpt lat="47.43835" lon="6.75033">
        <ele>390.9</ele>
        <time>2014-12-21T11:35:24Z</time>
      </trkpt>
      <trkpt lat="47.43908" lon="6.74946">
        <ele>376.6</ele>
        <time>2014-12-21T11:35:41Z</time>
      </trkpt>
      <trkpt lat="47.43912" lon="6.74894">
        <ele>366.7</ele>
        <time>2014-12-21T11:35:49Z</time>
      </trkpt>
      <trkpt lat="47.43902" lon="6.7481">
        <ele>369.6</ele>
        <time>2014-12-21T11:36:07Z</time>
      </trkpt>
      <trkpt lat="47.43933" lon="6.74811">
        <ele>368.1</ele>
        <time>2014-12-21T11:36:33Z</time>
      </trkpt>
      <trkpt lat="47.44011" lon="6.74893">
        <ele>366.6</ele>
        <time>2014-12-21T11:36:55Z</time>
      </trkpt>
      <trkpt lat="47.44165" lon="6.75189">
        <ele>359</ele>
        <time>2014-12-21T11:37:34Z</time>
      </trkpt>
      <trkpt lat="47.44277" lon="6.75287">
        <ele>358.6</ele>
        <time>2014-12-21T11:37:56Z</time>
      </trkpt>
      <trkpt lat="47.44379" lon="6.75329">
        <ele>355.2</ele>
        <time>2014-12-21T11:38:09Z</time>
      </trkpt>
      <trkpt lat="47.44511" lon="6.75447">
        <ele>353.7</ele>
        <time>2014-12-21T11:38:29Z</time>
      </trkpt>
      <trkpt lat="47.44763" lon="6.75445">
        <ele>349.7</ele>
        <time>2014-12-21T11:39:07Z</time>
      </trkpt>
      <trkpt lat="47.44882" lon="6.75423">
        <ele>346.2</ele>
        <time>2014-12-21T11:39:24Z</time>
      </trkpt>
      <trkpt lat="47.45039" lon="6.75447">
        <ele>343.6</ele>
        <time>2014-12-21T11:39:48Z</time>
      </trkpt>
      <trkpt lat="47.4518" lon="6.75409">
        <ele>341.2</ele>
        <time>2014-12-21T11:40:08.999Z</time>
      </trkpt>
      <trkpt lat="47.45399" lon="6.75293">
        <ele>335.1</ele>
        <time>2014-12-21T11:40:49Z</time>
      </trkpt>
      <trkpt lat="47.45577" lon="6.75357">
        <ele>330.3</ele>
        <time>2014-12-21T11:41:15Z</time>
      </trkpt>
      <trkpt lat="47.45664" lon="6.7542">
        <ele>326.8</ele>
        <time>2014-12-21T11:41:31Z</time>
      </trkpt>
      <trkpt lat="47.45798" lon="6.75625">
        <ele>331.1</ele>
        <time>2014-12-21T11:42:05Z</time>
      </trkpt>
      <trkpt lat="47.46008" lon="6.75808">
        <ele>329.2</ele>
        <time>2014-12-21T11:42:48Z</time>
      </trkpt>
      <trkpt lat="47.46065" lon="6.75913">
        <ele>328.2</ele>
        <time>2014-12-21T11:43:03Z</time>
      </trkpt>
      <trkpt lat="47.46102" lon="6.7601">
        <ele>330</ele>
        <time>2014-12-21T11:43:15Z</time>
      </trkpt>
      <trkpt lat="47.46181" lon="6.76151">
        <ele>321.6</ele>
        <time>2014-12-21T11:43:33Z</time>
      </trkpt>
      <trkpt lat="47.4625" lon="6.76232">
        <ele>320.3</ele>
        <time>2014-12-21T11:43:47Z</time>
      </trkpt>
      <trkpt lat="47.46339" lon="6.76267">
        <ele>323.9</ele>
        <time>2014-12-21T11:44:16Z</time>
      </trkpt>
      <trkpt lat="47.46448" lon="6.76288">
        <ele>324.9</ele>
        <time>2014-12-21T11:44:45Z</time>
      </trkpt>
      <trkpt lat="47.46474" lon="6.76279">
        <ele>321.3</ele>
        <time>2014-12-21T11:44:50.999Z</time>
      </trkpt>
      <trkpt lat="47.46485" lon="6.76299">
        <ele>317</ele>
        <time>2014-12-21T11:44:56Z</time>
      </trkpt>
      <trkpt lat="47.46552" lon="6.76285">
        <ele>313.6</ele>
        <time>2014-12-21T11:45:15.999Z</time>
      </trkpt>
      <trkpt lat="47.46594" lon="6.76304">
        <ele>317.1</ele>
        <time>2014-12-21T11:45:28.998Z</time>
      </trkpt>
      <trkpt lat="47.46719" lon="6.76306">
        <ele>318.4</ele>
        <time>2014-12-21T11:46:02Z</time>
      </trkpt>
      <trkpt lat="47.46775" lon="6.76291">
        <ele>314.6</ele>
        <time>2014-12-21T11:46:16Z</time>
      </trkpt>
      <trkpt lat="47.46827" lon="6.76317">
        <ele>314.9</ele>
        <time>2014-12-21T11:46:32Z</time>
      </trkpt>
      <trkpt lat="47.4698" lon="6.76331">
        <ele>309.2</ele>
        <time>2014-12-21T11:47:04Z</time>
      </trkpt>
      <trkpt lat="47.4722" lon="6.76406">
        <ele>310.2</ele>
        <time>2014-12-21T11:47:52Z</time>
      </trkpt>
      <trkpt lat="47.473" lon="6.76382">
        <ele>310.4</ele>
        <time>2014-12-21T11:48:08Z</time>
      </trkpt>
      <trkpt lat="47.47443" lon="6.76465">
        <ele>316.2</ele>
        <time>2014-12-21T11:50:58Z</time>
      </trkpt>
      <trkpt lat="47.47445" lon="6.76494">
        <ele>316.9</ele>
        <time>2014-12-21T11:51:30Z</time>
      </trkpt>
      <trkpt lat="47.4745" lon="6.76481">
        <ele>320.2</ele>
        <time>2014-12-21T11:51:56Z</time>
      </trkpt>
      <trkpt lat="47.47448" lon="6.76499">
        <ele>311.6</ele>
        <time>2014-12-21T11:53:40Z</time>
      </trkpt>
      <trkpt lat="47.4756" lon="6.76667">
        <ele>312.6</ele>
        <time>2014-12-21T11:54:24Z</time>
      </trkpt>
      <trkpt lat="47.47745" lon="6.76798">
        <ele>319.1</ele>
        <time>2014-12-21T11:55:08Z</time>
      </trkpt>
      <trkpt lat="47.47812" lon="6.76821">
        <ele>318.7</ele>
        <time>2014-12-21T11:55:24Z</time>
      </trkpt>
      <trkpt lat="47.47837" lon="6.76797">
        <ele>313.2</ele>
        <time>2014-12-21T11:55:29.999Z</time>
      </trkpt>
      <trkpt lat="47.47916" lon="6.76647">
        <ele>309.3</ele>
        <time>2014-12-21T11:55:57Z</time>
      </trkpt>
      <trkpt lat="47.4803" lon="6.7658">
        <ele>309.2</ele>
        <time>2014-12-21T11:56:30Z</time>
      </trkpt>
      <trkpt lat="47.48109" lon="6.76509">
        <ele>299.4</ele>
        <time>2014-12-21T11:56:52Z</time>
      </trkpt>
      <trkpt lat="47.48122" lon="6.76541">
        <ele>296.3</ele>
        <time>2014-12-21T11:56:59Z</time>
      </trkpt>
      <trkpt lat="47.48092" lon="6.76583">
        <ele>300.6</ele>
        <time>2014-12-21T11:57:08Z</time>
      </trkpt>
      <trkpt lat="47.48091" lon="6.76625">
        <ele>299.8</ele>
        <time>2014-12-21T11:57:13.999Z</time>
      </trkpt>
      <trkpt lat="47.48185" lon="6.76774">
        <ele>306.3</ele>
        <time>2014-12-21T11:57:41Z</time>
      </trkpt>
      <trkpt lat="47.48239" lon="6.76801">
        <ele>307.7</ele>
        <time>2014-12-21T11:57:53Z</time>
      </trkpt>
      <trkpt lat="47.48304" lon="6.76887">
        <ele>307.2</ele>
        <time>2014-12-21T11:58:10Z</time>
      </trkpt>
      <trkpt lat="47.48541" lon="6.77051">
        <ele>307.9</ele>
        <time>2014-12-21T11:58:59Z</time>
      </trkpt>
      <trkpt lat="47.48584" lon="6.7706">
        <ele>307.6</ele>
        <time>2014-12-21T11:59:09Z</time>
      </trkpt>
      <trkpt lat="47.48699" lon="6.77167">
        <ele>310.3</ele>
        <time>2014-12-21T11:59:36Z</time>
      </trkpt>
      <trkpt lat="47.48852" lon="6.7728">
        <ele>305.8</ele>
        <time>2014-12-21T12:00:03Z</time>
      </trkpt>
      <trkpt lat="47.48948" lon="6.77318">
        <ele>307.3</ele>
        <time>2014-12-21T12:00:15Z</time>
      </trkpt>
      <trkpt lat="47.49223" lon="6.77342">
        <ele>308.5</ele>
        <time>2014-12-21T12:03:10Z</time>
      </trkpt>
      <trkpt lat="47.49296" lon="6.77332">
        <ele>306.2</ele>
        <time>2014-12-21T12:03:24Z</time>
      </trkpt>
      <trkpt lat="47.49354" lon="6.77353">
        <ele>307.3</ele>
        <time>2014-12-21T12:03:37Z</time>
      </trkpt>
      <trkpt lat="47.49597" lon="6.77363">
        <ele>303.5</ele>
        <time>2014-12-21T12:04:24Z</time>
      </trkpt>
      <trkpt lat="47.49723" lon="6.77335">
        <ele>304.2</ele>
        <time>2014-12-21T12:04:48Z</time>
      </trkpt>
      <trkpt lat="47.49762" lon="6.77314">
        <ele>303.8</ele>
        <time>2014-12-21T12:04:56Z</time>
      </trkpt>
      <trkpt lat="47.49903" lon="6.77294">
        <ele>306.5</ele>
        <time>2014-12-21T12:05:25Z</time>
      </trkpt>
      <trkpt lat="47.50095" lon="6.77199">
        <ele>308.2</ele>
        <time>2014-12-21T12:06:07Z</time>
      </trkpt>
      <trkpt lat="47.50146" lon="6.77207">
        <ele>312.6</ele>
        <time>2014-12-21T12:06:15.999Z</time>
      </trkpt>
      <trkpt lat="47.50184" lon="6.77249">
        <ele>305.9</ele>
        <time>2014-12-21T12:06:24Z</time>
      </trkpt>
      <trkpt lat="47.50276" lon="6.77306">
        <ele>302.2</ele>
        <time>2014-12-21T12:06:43Z</time>
      </trkpt>
      <trkpt lat="47.50546" lon="6.77532">
        <ele>306.5</ele>
        <time>2014-12-21T12:07:44Z</time>
      </trkpt>
      <trkpt lat="47.50558" lon="6.77555">
        <ele>306.5</ele>
        <time>2014-12-21T12:07:49Z</time>
      </trkpt>
      <trkpt lat="47.50579" lon="6.77557">
        <ele>307.1</ele>
        <time>2014-12-21T12:07:56Z</time>
      </trkpt>
      <trkpt lat="47.50581" lon="6.77532">
        <ele>305.3</ele>
        <time>2014-12-21T12:07:59Z</time>
      </trkpt>
      <trkpt lat="47.50717" lon="6.77538">
        <ele>308.8</ele>
        <time>2014-12-21T12:08:28Z</time>
      </trkpt>
      <trkpt lat="47.50787" lon="6.77583">
        <ele>310.2</ele>
        <time>2014-12-21T12:08:43Z</time>
      </trkpt>
      <trkpt lat="47.50843" lon="6.7764">
        <ele>312.4</ele>
        <time>2014-12-21T12:08:56Z</time>
      </trkpt>
      <trkpt lat="47.50884" lon="6.77703">
        <ele>308.4</ele>
        <time>2014-12-21T12:09:10Z</time>
      </trkpt>
      <trkpt lat="47.50966" lon="6.7769">
        <ele>312.8</ele>
        <time>2014-12-21T12:09:41Z</time>
      </trkpt>
      <trkpt lat="47.51029" lon="6.77745">
        <ele>319.4</ele>
        <time>2014-12-21T12:09:59.998Z</time>
      </trkpt>
      <trkpt lat="47.5104" lon="6.77742">
        <ele>322.7</ele>
        <time>2014-12-21T12:10:05Z</time>
      </trkpt>
      <trkpt lat="47.51061" lon="6.77766">
        <ele>318.7</ele>
        <time>2014-12-21T12:10:14Z</time>
      </trkpt>
      <trkpt lat="47.51196" lon="6.77791">
        <ele>324.3</ele>
        <time>2014-12-21T12:10:59Z</time>
      </trkpt>
      <trkpt lat="47.51332" lon="6.77781">
        <ele>332</ele>
        <time>2014-12-21T12:12:16Z</time>
      </trkpt>
      <trkpt lat="47.51413" lon="6.77737">
        <ele>339.7</ele>
        <time>2014-12-21T12:13:09Z</time>
      </trkpt>
      <trkpt lat="47.51522" lon="6.7773">
        <ele>360.6</ele>
        <time>2014-12-21T12:14:24Z</time>
      </trkpt>
      <trkpt lat="47.51574" lon="6.77748">
        <ele>369</ele>
        <time>2014-12-21T12:15:03Z</time>
      </trkpt>
      <trkpt lat="47.5158" lon="6.77764">
        <ele>370.9</ele>
        <time>2014-12-21T12:15:09Z</time>
      </trkpt>
      <trkpt lat="47.51681" lon="6.7778">
        <ele>383.6</ele>
        <time>2014-12-21T12:16:06Z</time>
      </trkpt>
      <trkpt lat="47.51695" lon="6.77756">
        <ele>380.6</ele>
        <time>2014-12-21T12:16:16Z</time>
      </trkpt>
      <trkpt lat="47.51733" lon="6.77487">
        <ele>384.5</ele>
        <time>2014-12-21T12:17:37Z</time>
      </trkpt>
      <trkpt lat="47.51808" lon="6.77504">
        <ele>387.4</ele>
        <time>2014-12-21T12:18:00Z</time>
      </trkpt>
      <trkpt lat="47.51797" lon="6.77469">
        <ele>389.7</ele>
        <time>2014-12-21T12:18:15Z</time>
      </trkpt>
      <trkpt lat="47.51804" lon="6.77461">
        <ele>382</ele>
        <time>2014-12-21T12:19:43Z</time>
      </trkpt>
      <trkpt lat="47.51804" lon="6.77472">
        <ele>378</ele>
        <time>2014-12-21T12:22:43Z</time>
      </trkpt>
    </trkseg>
  </trk>
</gpx>